Time;durP1;ratioP1;P1;durP2;ratioP2;P2;SDS_P1;SDS_P2;PMS_P1;PMS_P2;Temp;Humidity;BMP_temperature;BMP_pressure;BME280_temperature;BME280_humidity;BME280_pressure;Samples;Min_cycle;Max_cycle;Signal;HPM_P1;HPM_P2
2022/04/18 00:02:01;;;;;;;61.17;23.15;;;;;;;23.90;73.33;97884.53;4928867;29;20110;-68
2022/04/18 00:04:50;;;;;;;64.82;24.85;;;;;;;23.85;74.75;97902.59;4927446;29;20040;-69
2022/04/18 00:07:39;;;;;;;59.65;24.23;;;;;;;23.96;78.65;97912.88;4927933;29;20392;-70
2022/04/18 00:10:28;;;;;;;64.00;22.05;;;;;;;24.03;77.00;97948.16;4928503;29;21727;-69
2022/04/18 00:13:10;;;;;;;56.45;21.98;;;;;;;24.00;77.09;97984.47;4927990;29;20058;-69
2022/04/18 00:15:59;;;;;;;71.18;26.52;;;;;;;24.20;61.71;98024.66;4929343;29;20086;-69
2022/04/18 00:18:40;;;;;;;79.82;27.92;;;;;;;24.65;56.56;98014.97;4927325;29;20372;-70
2022/04/18 00:21:31;;;;;;;81.40;30.65;;;;;;;24.83;59.08;97980.69;4927404;29;20145;-69
2022/04/18 00:24:14;;;;;;;99.30;31.75;;;;;;;24.90;57.97;97980.94;4926175;29;20047;-70
2022/04/18 00:27:09;;;;;;;82.28;30.45;;;;;;;24.93;64.63;97994.66;4921285;29;20067;-69
2022/04/18 00:29:45;;;;;;;89.82;30.40;;;;;;;25.03;58.05;98042.00;4925243;29;20111;-70
2022/04/18 00:32:42;;;;;;;94.90;31.75;;;;;;;25.13;58.79;98042.75;4926697;29;20051;-70
2022/04/18 00:35:18;;;;;;;72.13;31.17;;;;;;;25.16;58.35;98016.91;4912342;29;20083;-69
2022/04/18 00:38:06;;;;;;;94.97;31.63;;;;;;;25.22;62.69;97999.66;4927976;29;20051;-69
2022/04/18 00:40:47;;;;;;;73.72;31.58;;;;;;;25.20;64.93;98000.78;4925997;29;20052;-70
2022/04/18 00:43:52;;;;;;;76.15;31.48;;;;;;;25.17;64.88;98007.19;4947628;28;20043;-70
2022/04/18 00:46:27;;;;;;;76.78;30.17;;;;;;;25.17;66.71;98018.56;4930762;29;20721;-69
2022/04/18 00:49:15;;;;;;;74.07;31.05;;;;;;;25.16;69.25;98016.91;4946938;28;20058;-69
2022/04/18 00:51:57;;;;;;;75.15;30.15;;;;;;;25.14;69.38;98012.78;4927719;29;20048;-69
2022/04/18 00:54:48;;;;;;;73.18;30.77;;;;;;;25.11;68.83;98007.81;4927998;29;20081;-69
2022/04/18 00:57:31;;;;;;;65.88;31.65;;;;;;;25.08;69.20;98008.09;4932884;29;20047;-68
2022/04/18 01:00:21;;;;;;;74.57;29.77;;;;;;;25.11;71.99;98013.91;4947785;28;20055;-69
2022/04/18 01:03:03;;;;;;;75.15;31.58;;;;;;;25.08;70.27;98018.66;4947321;29;20055;-70
2022/04/18 01:05:52;;;;;;;77.00;33.17;;;;;;;25.07;71.04;98017.00;4928113;29;20467;-69
2022/04/18 01:08:36;;;;;;;72.27;33.00;;;;;;;25.06;73.07;98020.63;4947976;29;20066;-69
2022/04/18 01:11:26;;;;;;;77.75;31.70;;;;;;;25.13;72.62;98011.13;4948252;29;20386;-69
2022/04/18 01:14:41;;;;;;;68.88;31.17;;;;;;;25.09;73.32;98005.31;4931507;28;20051;-69
2022/04/18 01:17:59;;;;;;;69.93;32.70;;;;;;;25.04;69.89;98009.41;4886214;29;20056;-69
2022/04/18 01:21:00;;;;;;;74.72;32.50;;;;;;;25.08;71.90;98018.66;4925418;29;20146;-69
2022/04/18 01:30:29;;;;;;;77.78;34.33;;;;;;;25.24;72.07;98024.03;4937934;29;20055;-69
2022/04/18 01:33:18;;;;;;;88.88;34.80;;;;;;;25.35;75.85;98030.88;4947122;29;20043;-68
2022/04/18 01:36:07;;;;;;;78.28;33.55;;;;;;;25.43;76.99;98033.56;4946332;28;20054;-68
2022/04/18 01:38:57;;;;;;;84.53;34.17;;;;;;;25.37;71.87;98029.75;4933096;29;20057;-69
2022/04/18 01:41:40;;;;;;;92.47;35.10;;;;;;;25.45;73.16;98037.72;4963702;28;20043;-69
2022/04/18 01:44:29;;;;;;;80.72;34.42;;;;;;;25.63;76.68;98023.66;4943293;28;20046;-68
2022/04/18 01:47:11;;;;;;;90.30;34.03;;;;;;;25.75;78.02;98030.31;4937534;29;20051;-68
2022/04/18 01:50:00;;;;;;;81.72;33.78;;;;;;;25.80;81.37;98030.66;4942379;29;20054;-67
2022/04/18 01:52:43;;;;;;;102.40;34.27;;;;;;;25.89;76.54;98037.66;4911342;29;20051;-67
2022/04/18 01:55:33;;;;;;;106.05;34.08;;;;;;;25.94;80.01;98037.19;4944567;28;20062;-69
2022/04/18 01:58:15;;;;;;;80.00;32.63;;;;;;;26.03;78.44;98033.56;4966415;28;20069;-70
2022/04/18 02:01:03;;;;;;;89.20;31.65;;;;;;;26.06;71.18;98047.28;4943122;28;20487;-69
2022/04/18 02:03:52;;;;;;;74.38;29.70;;;;;;;26.27;76.31;98042.44;4940241;29;20043;-68
2022/04/18 02:06:41;;;;;;;88.85;29.67;;;;;;;26.41;73.73;98041.00;4946955;29;20110;-68
2022/04/18 02:09:30;;;;;;;71.22;29.95;;;;;;;26.55;73.40;98034.25;4946893;29;20066;-69
2022/04/18 02:12:19;;;;;;;87.90;30.98;;;;;;;26.68;74.36;98030.16;4929234;28;20154;-69
2022/04/18 02:15:06;;;;;;;70.45;28.88;;;;;;;26.85;75.05;98041.56;4947425;29;20055;-69
2022/04/18 02:18:03;;;;;;;59.63;26.85;;;;;;;27.19;74.02;98048.56;4929742;28;20043;-70
2022/04/18 02:20:52;;;;;;;56.75;27.52;;;;;;;27.69;74.20;98048.34;4947192;28;20063;-70
2022/04/18 02:23:33;;;;;;;76.88;27.92;;;;;;;27.90;63.79;98051.25;4931320;28;20523;-70
2022/04/18 02:26:22;;;;;;;73.25;28.10;;;;;;;28.52;69.24;98052.16;4949580;28;20104;-70
2022/04/18 02:29:15;;;;;;;68.78;27.27;;;;;;;28.87;64.56;98060.59;4962570;28;20047;-69
2022/04/18 02:35:04;;;;;;;59.22;26.35;;;;;;;29.74;67.31;98064.47;4929129;29;20146;-70
2022/04/18 02:37:48;;;;;;;63.07;25.17;;;;;;;29.99;67.02;98067.72;4951691;28;20054;-69
2022/04/18 02:40:44;;;;;;;53.95;23.83;;;;;;;30.14;64.52;98067.72;4933366;29;20395;-70
2022/04/18 02:43:27;;;;;;;72.43;25.80;;;;;;;30.20;58.89;98067.78;4930722;28;20129;-70
2022/04/18 02:46:19;;;;;;;66.57;25.75;;;;;;;30.33;51.42;98070.59;4910894;29;20051;-70
2022/04/18 02:49:05;;;;;;;75.90;24.75;;;;;;;30.42;60.08;98061.50;4926732;29;20051;-70
2022/04/18 02:51:53;;;;;;;59.45;25.00;;;;;;;30.27;69.54;98060.72;4925429;29;20044;-70
2022/04/18 02:54:35;;;;;;;56.47;24.77;;;;;;;30.22;70.77;98067.63;4911970;29;20052;-69
2022/04/18 02:57:26;;;;;;;60.05;25.40;;;;;;;30.25;72.92;98065.38;4927332;29;20180;-69
2022/04/18 03:00:11;;;;;;;51.83;24.42;;;;;;;30.23;69.67;98072.75;4910716;29;20134;-70
2022/04/18 03:03:01;;;;;;;58.55;25.25;;;;;;;30.23;71.66;98074.56;4926964;29;20051;-68
2022/04/18 03:05:43;;;;;;;61.00;25.25;;;;;;;30.23;73.62;98079.91;4929734;29;20054;-70
2022/04/18 03:08:32;;;;;;;60.38;23.60;;;;;;;30.08;66.23;98079.09;4928782;29;20062;-70
2022/04/18 03:11:14;;;;;;;49.47;22.75;;;;;;;30.01;71.09;98084.31;4927654;29;20057;-69
2022/04/18 03:14:03;;;;;;;56.10;22.88;;;;;;;29.96;70.81;98090.16;4913312;29;20055;-70
2022/04/18 03:16:49;;;;;;;46.10;21.88;;;;;;;29.92;73.04;98086.22;4914774;29;20063;-69
2022/04/18 03:19:38;;;;;;;60.72;23.67;;;;;;;29.92;65.87;98102.16;4913877;29;20059;-70
2022/04/18 03:22:20;;;;;;;57.90;24.15;;;;;;;30.01;65.47;98100.25;4930890;29;20060;-69
2022/04/18 03:25:13;;;;;;;;;;;;;;;30.16;66.33;98105.56;4912836;29;20134;-69
2022/04/18 03:27:55;;;;;;;62.50;26.67;;;;;;;30.23;64.48;98109.13;4929359;29;20049;-70
2022/04/18 03:30:44;;;;;;;56.72;25.85;;;;;;;30.35;53.11;98120.94;4929202;29;20458;-70
2022/04/18 03:33:33;;;;;;;51.75;25.00;;;;;;;30.64;65.82;98120.94;4908694;29;20428;-70
2022/04/18 03:39:54;;;;;;;55.30;25.80;;;;;;;30.88;63.13;98108.31;4876146;29;20044;-70
2022/04/18 03:42:49;;;;;;;56.50;24.90;;;;;;;30.92;63.76;98101.56;4916625;28;20054;-70
2022/04/18 03:45:45;;;;;;;57.33;25.08;;;;;;;30.97;58.08;98097.31;4931632;29;20052;-70
2022/04/18 03:48:20;;;;;;;56.45;24.90;;;;;;;31.11;45.56;98101.81;4928264;29;20086;-70
2022/04/18 03:51:15;;;;;;;64.22;23.77;;;;;;;31.33;49.64;98093.81;4922263;29;20059;-70
2022/04/18 03:53:51;;;;;;;47.28;23.48;;;;;;;31.46;49.92;98094.72;4910216;29;20051;-70
2022/04/18 03:56:42;;;;;;;73.70;24.00;;;;;;;31.67;49.94;98091.25;4923227;29;20143;-70
2022/04/18 03:59:51;;;;;;;47.17;22.45;;;;;;;31.82;44.81;98094.63;4928559;29;20078;-70
2022/04/18 04:02:34;;;;;;;56.80;24.77;;;;;;;32.09;57.77;98092.94;4908184;29;20054;-71
2022/04/18 04:05:36;;;;;;;53.63;21.58;;;;;;;32.18;58.45;98093.63;4927243;29;20130;-71
2022/04/18 04:08:32;;;;;;;50.22;22.25;;;;;;;32.48;54.26;98099.53;4912601;29;20067;-70
2022/04/18 04:11:10;;;;;;;52.08;22.08;;;;;;;32.70;46.56;98103.72;4912263;29;20054;-69
2022/04/18 04:13:59;;;;;;;49.90;20.83;;;;;;;33.08;50.68;98101.34;4925552;29;20055;-67
2022/04/18 04:16:42;;;;;;;49.97;19.88;;;;;;;33.35;53.30;98108.41;4930558;29;20056;-69
2022/04/18 04:19:30;;;;;;;59.97;21.77;;;;;;;33.86;50.28;98117.63;4923969;29;20060;-68
2022/04/18 04:22:35;;;;;;;44.35;19.38;;;;;;;34.26;44.11;98111.19;4928768;28;20071;-69
2022/04/18 04:25:42;;;;;;;54.45;19.77;;;;;;;34.56;47.39;98111.50;4929450;29;20134;-69
2022/04/18 04:28:30;;;;;;;47.38;19.05;;;;;;;34.63;48.62;98109.63;4925774;29;20048;-69
2022/04/18 04:31:32;;;;;;;64.55;22.02;;;;;;;34.67;44.68;98105.47;4923291;29;20133;-69
2022/04/18 04:34:16;;;;;;;47.33;20.70;;;;;;;34.92;45.86;98094.84;4926951;29;20059;-68
2022/04/18 04:37:24;;;;;;;50.70;19.35;;;;;;;35.25;39.34;98084.78;4917329;29;20051;-68
2022/04/18 04:40:33;;;;;;;56.88;20.90;;;;;;;35.44;34.23;98072.22;4926391;29;20047;-69
2022/04/18 04:43:35;;;;;;;64.80;21.55;;;;;;;35.51;38.40;98072.19;4931346;28;20079;-69
2022/04/18 04:46:30;;;;;;;57.92;23.25;;;;;;;35.36;30.63;98071.72;4929529;29;20051;-68
2022/04/18 04:49:17;;;;;;;56.40;22.92;;;;;;;35.89;39.11;98064.84;4945488;28;20063;-68
2022/04/18 04:52:24;;;;;;;97.20;30.70;;;;;;;36.18;39.06;98059.75;4946213;28;20082;-69
2022/04/18 04:55:08;;;;;;;91.93;34.05;;;;;;;36.30;37.86;98050.75;4928127;29;20047;-70
2022/04/18 04:57:57;;;;;;;85.22;31.10;;;;;;;36.24;31.10;98058.91;4928908;29;20062;-71
2022/04/18 05:01:00;;;;;;;60.63;27.70;;;;;;;36.70;32.19;98056.44;4931911;28;20617;-66
2022/04/18 05:04:01;;;;;;;67.30;27.63;;;;;;;36.86;41.01;98054.16;4941536;28;20657;-68
2022/04/18 05:06:46;;;;;;;58.83;26.23;;;;;;;36.74;29.97;98064.84;4929816;28;20047;-68
2022/04/18 05:10:00;;;;;;;61.35;25.70;;;;;;;36.69;27.29;98060.19;4947935;28;20051;-68
2022/04/18 05:12:43;;;;;;;58.83;24.80;;;;;;;36.98;37.63;98057.69;4930854;28;20047;-68
2022/04/18 05:15:33;;;;;;;49.00;24.08;;;;;;;37.04;28.87;98067.50;4948037;28;20047;-67
2022/04/18 05:18:35;;;;;;;;;;;;;;;37.15;35.85;98064.06;4953626;28;20126;-69
2022/04/18 05:21:31;;;;;;;66.93;34.33;;;;;;;37.12;33.73;98059.09;4922188;28;19937;-70
2022/04/18 05:24:14;;;;;;;69.88;34.47;;;;;;;37.60;36.92;98064.34;4950576;28;20047;-68
2022/04/18 05:27:15;;;;;;;89.37;40.37;;;;;;;37.30;41.28;98059.06;4951097;28;20422;-71
2022/04/18 05:29:50;;;;;;;95.10;48.17;;;;;;;37.23;35.56;98058.34;4933429;28;20058;-68
2022/04/18 05:32:46;;;;;;;118.93;55.53;;;;;;;37.35;31.26;98069.13;4935404;28;20051;-68
2022/04/18 05:35:22;;;;;;;118.03;57.53;;;;;;;37.41;31.18;98074.38;4945105;28;20067;-67
2022/04/18 05:38:22;;;;;;;101.72;55.00;;;;;;;37.20;39.78;98061.50;4948464;28;20121;-69
2022/04/18 05:41:02;;;;;;;93.97;43.88;;;;;;;37.13;30.64;98071.53;4952082;28;20054;-68
2022/04/18 05:43:58;;;;;;;92.47;43.75;;;;;;;37.26;38.83;98060.59;4925420;28;20578;-68
2022/04/18 05:46:56;;;;;;;88.07;40.90;;;;;;;36.98;28.99;98065.75;4911655;29;20090;-69
2022/04/18 05:49:45;;;;;;;89.90;36.25;;;;;;;37.03;25.96;98076.63;4934224;28;20066;-69
2022/04/18 05:52:28;;;;;;;72.83;35.90;;;;;;;37.31;36.79;98059.88;4917005;28;20147;-69
2022/04/18 05:55:37;;;;;;;65.88;33.88;;;;;;;37.51;35.33;98058.50;4902401;29;20738;-68
2022/04/18 05:58:41;;;;;;;79.35;32.00;;;;;;;37.73;34.95;98060.63;4919560;29;20047;-68
2022/04/18 06:01:47;;;;;;;63.00;31.52;;;;;;;37.79;33.64;98057.81;4931985;28;20457;-69
2022/04/18 06:04:49;;;;;;;66.68;30.92;;;;;;;37.72;34.80;98056.28;4920731;28;20056;-68
2022/04/18 06:07:53;;;;;;;54.10;27.25;;;;;;;37.52;32.43;98048.53;4912243;29;20150;-70
2022/04/18 06:10:42;;;;;;;49.95;24.20;;;;;;;37.66;27.16;98052.69;4932495;28;20083;-70
2022/04/18 06:13:50;;;;;;;59.35;23.98;;;;;;;37.98;28.38;98045.03;4942032;28;20089;-68
2022/04/18 06:16:43;;;;;;;52.08;22.08;;;;;;;37.73;27.84;98057.94;4914081;29;20480;-69
2022/04/18 06:19:27;;;;;;;48.22;21.45;;;;;;;37.82;37.76;98043.91;4936893;28;20988;-69
2022/04/18 06:22:19;;;;;;;41.35;18.75;;;;;;;37.81;32.67;98047.63;4915885;29;20079;-69
2022/04/18 06:25:07;;;;;;;36.85;17.73;;;;;;;37.80;25.74;98051.38;4912207;29;20051;-69
2022/04/18 06:27:51;;;;;;;41.25;17.23;;;;;;;37.93;32.44;98042.22;4924516;29;20118;-70
2022/04/18 06:30:47;;;;;;;33.28;15.55;;;;;;;37.87;26.16;98044.00;4910459;29;20043;-67
2022/04/18 06:33:43;;;;;;;36.65;16.23;;;;;;;37.51;26.59;98047.75;4940837;29;20059;-68
2022/04/18 06:36:33;;;;;;;38.70;15.93;;;;;;;37.82;27.94;98046.59;4909899;29;20051;-68
2022/04/18 06:39:45;;;;;;;33.95;11.27;;;;;;;37.76;27.53;98046.69;4884613;29;20067;-68
2022/04/18 06:42:50;;;;;;;26.73;11.77;;;;;;;37.81;30.51;98036.88;4900699;29;20067;-67
2022/04/18 06:45:48;;;;;;;30.38;14.25;;;;;;;37.82;32.44;98032.31;4910343;29;20040;-66
2022/04/18 06:48:31;;;;;;;24.15;12.23;;;;;;;37.62;27.15;98038.06;4925831;29;20141;-68
2022/04/18 06:51:26;;;;;;;29.10;12.65;;;;;;;37.45;27.29;98032.53;4923181;29;20142;-68
2022/04/18 06:54:41;;;;;;;36.60;14.43;;;;;;;37.71;27.63;98030.44;4888146;29;20543;-68
2022/04/18 06:57:23;;;;;;;30.52;12.77;;;;;;;37.47;23.47;98035.00;4908891;29;20052;-67
2022/04/18 07:00:17;;;;;;;27.23;12.55;;;;;;;37.62;28.64;98027.31;4924013;29;20114;-67
2022/04/18 07:03:06;;;;;;;33.97;12.85;;;;;;;37.41;24.75;98023.31;4908850;29;20106;-67
2022/04/18 07:05:55;;;;;;;33.92;15.20;;;;;;;37.43;25.25;98023.91;4907992;29;20056;-67
2022/04/18 07:08:47;;;;;;;44.70;14.10;;;;;;;37.47;26.40;98025.06;4910074;29;20139;-67
2022/04/18 07:11:54;;;;;;;33.45;14.10;;;;;;;37.55;25.61;98027.41;4570092;29;10001551;-68
2022/04/18 07:14:49;;;;;;;36.95;13.75;;;;;;;37.78;25.08;98020.38;4922772;29;20058;-68
2022/04/18 07:17:25;;;;;;;30.55;14.50;;;;;;;37.50;26.21;98021.09;4909899;29;20051;-68
2022/04/18 07:20:17;;;;;;;36.97;16.27;;;;;;;37.53;29.45;98007.97;4926524;29;20544;-67
2022/04/18 07:22:59;;;;;;;48.45;16.02;;;;;;;37.61;28.98;98012.22;4926013;29;20047;-68
2022/04/18 07:26:08;;;;;;;38.60;14.57;;;;;;;37.53;27.60;98007.97;4924423;29;20050;-68
2022/04/18 07:28:50;;;;;;;30.50;13.37;;;;;;;37.58;31.98;97993.84;4926397;29;20051;-67
2022/04/18 07:31:39;;;;;;;34.72;13.63;;;;;;;37.38;30.95;97994.19;4903145;29;20059;-68
2022/04/18 07:34:21;;;;;;;44.88;14.00;;;;;;;37.25;32.46;97994.44;4925977;29;20055;-68
2022/04/18 07:37:19;;;;;;;43.65;14.70;;;;;;;37.21;30.05;97990.56;4909642;29;20051;-67
2022/04/18 07:39:55;;;;;;;39.92;15.77;;;;;;;36.99;36.09;97989.47;4909403;29;20043;-68
2022/04/18 07:42:49;;;;;;;33.58;15.27;;;;;;;36.84;37.46;97989.09;4925846;28;20052;-68
2022/04/18 07:45:44;;;;;;;54.28;17.23;;;;;;;36.82;26.14;97992.00;4922805;29;20059;-67
2022/04/18 07:48:21;;;;;;;31.65;15.13;;;;;;;37.00;26.69;97981.19;4914934;29;21412;-68
2022/04/18 07:54:35;;;;;;;35.75;15.15;;;;;;;36.97;33.91;97976.28;4925247;29;21425;-68
2022/04/18 07:57:19;;;;;;;38.28;15.55;;;;;;;36.93;33.80;97968.91;4911658;29;20130;-67
2022/04/18 08:00:14;;;;;;;35.65;14.85;;;;;;;36.86;30.65;97960.97;4914037;29;20062;-69
2022/04/18 08:03:01;;;;;;;35.42;15.75;;;;;;;36.74;32.25;97960.94;4915104;29;20070;-70
2022/04/18 08:06:08;;;;;;;25.92;14.15;;;;;;;36.70;33.00;97964.34;4912740;29;20060;-68
2022/04/18 08:09:15;;;;;;;33.95;15.10;;;;;;;36.61;32.89;97955.75;4930179;29;20070;-69
2022/04/18 08:12:06;;;;;;;35.42;16.45;;;;;;;36.46;33.50;97943.81;4913784;29;20052;-70
2022/04/18 08:15:12;;;;;;;35.13;15.52;;;;;;;36.34;30.93;97941.09;4929164;29;20063;-70
2022/04/18 08:17:48;;;;;;;45.22;16.17;;;;;;;36.34;28.73;97946.44;4928703;29;20052;-70
2022/04/18 08:20:57;;;;;;;;;;;;;;;36.49;29.49;97941.47;4912317;29;20048;-69
2022/04/18 08:23:39;;;;;;;55.55;17.05;;;;;;;36.42;28.78;97943.44;4915130;29;20354;-70
2022/04/18 08:26:40;;;;;;;32.17;14.45;;;;;;;36.50;28.44;97944.97;4928998;29;20059;-66
2022/04/18 08:29:31;;;;;;;36.28;15.18;;;;;;;36.47;27.78;97934.72;4915604;29;20052;-65
2022/04/18 08:32:27;;;;;;;30.42;15.60;;;;;;;36.47;31.82;97935.53;4927009;29;20047;-66
2022/04/18 08:35:10;;;;;;;38.58;17.90;;;;;;;36.44;30.14;97927.94;4928247;29;20056;-66
2022/04/18 08:37:59;;;;;;;42.97;17.52;;;;;;;36.39;29.70;97934.00;4913835;29;20044;-66
2022/04/18 08:40:44;;;;;;;42.13;16.30;;;;;;;36.35;30.12;97918.56;4927920;29;20058;-68
2022/04/18 08:43:33;;;;;;;41.63;17.27;;;;;;;36.35;29.54;97923.94;4911472;29;20052;-68
2022/04/18 08:46:15;;;;;;;42.50;16.52;;;;;;;36.33;32.04;97915.28;4911193;29;20419;-68
2022/04/18 08:55:34;;;;;;;39.25;16.42;;;;;;;36.18;33.84;97899.59;4926501;29;20222;-69
2022/04/18 08:58:35;;;;;;;34.33;15.90;;;;;;;36.12;27.01;97902.38;4913856;29;20142;-69
2022/04/18 09:01:22;;;;;;;36.08;15.68;;;;;;;36.14;28.80;97894.91;4910843;29;20083;-69
2022/04/18 09:04:20;;;;;;;40.88;16.00;;;;;;;36.17;27.46;97889.91;4927091;29;20043;-68
2022/04/18 09:07:02;;;;;;;47.30;14.77;;;;;;;36.12;28.54;97892.47;4911679;29;20047;-69
2022/04/18 09:09:58;;;;;;;41.85;15.65;;;;;;;36.16;27.62;97884.78;4907176;29;20054;-68
2022/04/18 09:12:39;;;;;;;47.95;15.90;;;;;;;36.36;24.69;97893.38;4927812;29;20122;-69
2022/04/18 09:15:49;;;;;;;34.78;14.73;;;;;;;36.35;24.24;97887.19;4926477;29;20166;-68
2022/04/18 09:18:31;;;;;;;43.58;14.40;;;;;;;36.30;25.38;97880.88;4920909;29;20058;-68
2022/04/18 09:21:32;;;;;;;41.38;15.52;;;;;;;36.29;25.58;97876.56;4911075;29;20055;-68
2022/04/18 09:24:42;;;;;;;31.35;14.57;;;;;;;36.26;26.06;97866.28;4911196;29;20054;-66
2022/04/18 09:27:29;;;;;;;30.17;15.65;;;;;;;36.19;28.76;97860.19;4909558;29;20052;-70
2022/04/18 09:30:22;;;;;;;38.90;16.05;;;;;;;36.29;25.35;97863.13;4908406;29;20059;-67
2022/04/18 09:33:07;;;;;;;38.15;15.55;;;;;;;36.10;30.36;97846.25;4927226;29;20048;-69
2022/04/18 09:36:25;;;;;;;34.03;15.13;;;;;;;36.02;27.21;97855.44;4924726;29;20044;-67
2022/04/18 09:39:07;;;;;;;37.78;15.20;;;;;;;35.99;27.92;97845.19;4908217;29;20044;-68
2022/04/18 09:42:18;;;;;;;31.42;15.43;;;;;;;35.88;31.61;97837.91;4923516;29;20058;-67
2022/04/18 09:45:31;;;;;;;30.95;13.95;;;;;;;35.79;30.56;97833.09;4925662;29;20047;-69
2022/04/18 09:48:14;;;;;;;25.60;13.63;;;;;;;35.67;29.40;97833.84;4936370;29;20046;-69
2022/04/18 09:51:08;;;;;;;32.83;14.85;;;;;;;35.82;27.80;97832.66;4944421;28;20074;-69
2022/04/18 09:54:16;;;;;;;35.97;14.93;;;;;;;35.87;28.33;97825.56;4941298;29;20138;-70
2022/04/18 09:57:06;;;;;;;31.30;13.73;;;;;;;35.76;29.05;97822.84;4920931;29;20046;-70
2022/04/18 09:59:57;;;;;;;33.28;14.00;;;;;;;35.76;30.71;97833.56;4944852;28;20051;-69
2022/04/18 10:02:46;;;;;;;31.98;14.68;;;;;;;35.60;31.63;97819.69;4941955;28;20419;-68
2022/04/18 10:05:30;;;;;;;33.60;15.77;;;;;;;35.48;28.45;97820.69;4944688;29;20059;-70
2022/04/18 10:08:19;;;;;;;31.98;14.07;;;;;;;35.38;29.20;97821.22;4944888;29;20047;-70
2022/04/18 10:11:02;;;;;;;40.72;14.75;;;;;;;35.30;30.92;97814.31;4945969;29;20051;-68
2022/04/18 10:13:51;;;;;;;40.00;16.42;;;;;;;35.21;31.52;97809.44;4944218;29;20043;-70
2022/04/18 10:16:40;;;;;;;42.20;16.85;;;;;;;35.16;35.68;97799.41;4946523;28;20058;-69
2022/04/18 10:19:56;;;;;;;38.35;18.20;;;;;;;35.05;34.53;97805.50;4945887;28;20055;-69
2022/04/18 10:23:03;;;;;;;35.70;18.60;;;;;;;35.06;34.29;97791.09;4945416;29;20856;-70
2022/04/18 10:26:14;;;;;;;46.15;19.38;;;;;;;34.95;36.20;97799.06;4945870;29;20597;-71
2022/04/18 10:29:06;;;;;;;45.40;20.05;;;;;;;34.83;33.77;97796.28;4945024;29;20050;-70
2022/04/18 10:31:52;;;;;;;43.33;19.33;;;;;;;34.78;35.29;97793.47;4943721;29;20051;-68
2022/04/18 10:34:42;;;;;;;44.47;19.95;;;;;;;34.91;33.04;97793.31;4947459;29;20154;-69
2022/04/18 10:37:24;;;;;;;55.05;21.65;;;;;;;34.97;32.18;97786.25;4941439;29;20066;-67
2022/04/18 10:40:14;;;;;;;49.35;21.83;;;;;;;34.93;31.05;97791.25;4946715;28;20138;-69
2022/04/18 10:42:55;;;;;;;58.92;23.55;;;;;;;34.84;32.14;97780.00;4946599;28;20070;-70
2022/04/18 10:45:44;;;;;;;47.88;23.10;;;;;;;34.74;33.57;97777.03;4932721;29;20047;-69
2022/04/18 10:48:37;;;;;;;43.40;21.90;;;;;;;34.69;33.59;97770.66;4933317;29;20052;-71
2022/04/18 10:51:36;;;;;;;41.60;21.45;;;;;;;34.64;33.70;97776.69;4933708;29;20063;-72
2022/04/18 10:54:21;;;;;;;49.70;22.45;;;;;;;34.44;37.49;97766.19;4929529;29;20106;-68
2022/04/18 10:57:13;;;;;;;49.08;22.42;;;;;;;34.37;38.41;97765.41;4926712;29;20745;-70
2022/04/18 10:59:56;;;;;;;40.63;20.83;;;;;;;34.22;39.49;97762.25;4926045;29;20052;-69
2022/04/18 11:02:44;;;;;;;43.40;21.02;;;;;;;34.13;38.58;97776.91;4927003;29;20058;-69
2022/04/18 11:05:36;;;;;;;43.50;22.20;;;;;;;33.97;38.25;97766.75;4930322;29;20135;-68
2022/04/18 11:08:31;;;;;;;47.88;22.27;;;;;;;33.90;38.67;97771.34;4929174;29;20055;-67
2022/04/18 11:11:17;;;;;;;50.53;21.40;;;;;;;33.90;39.33;97768.66;4936535;29;20138;-68
2022/04/18 11:14:06;;;;;;;50.22;20.15;;;;;;;33.88;37.10;97766.19;4927613;29;20055;-69
2022/04/18 11:16:54;;;;;;;38.38;19.13;;;;;;;33.79;39.36;97759.47;4926959;29;20143;-69
2022/04/18 11:19:49;;;;;;;42.40;18.23;;;;;;;33.72;39.17;97756.84;4933572;29;20051;-70
2022/04/18 11:22:31;;;;;;;36.08;17.65;;;;;;;33.65;40.39;97760.56;4936970;29;20051;-70
2022/04/18 11:25:20;;;;;;;39.92;16.52;;;;;;;33.66;40.37;97763.03;4931235;29;20091;-68
2022/04/18 11:28:09;;;;;;;41.20;16.10;;;;;;;33.69;34.43;97761.75;4935537;29;20432;-69
2022/04/18 11:30:52;;;;;;;48.05;15.65;;;;;;;33.54;38.36;97759.38;4934594;29;20058;-68
2022/04/18 11:33:47;;;;;;;30.33;14.25;;;;;;;33.43;39.27;97749.41;4934038;29;20047;-69
2022/04/18 11:36:42;;;;;;;33.20;14.70;;;;;;;33.31;40.42;97759.09;4931753;29;20124;-69
2022/04/18 11:39:18;;;;;;;39.72;14.40;;;;;;;33.26;39.35;97754.41;4930623;29;20123;-70
2022/04/18 11:42:14;;;;;;;30.33;13.68;;;;;;;33.18;38.98;97759.16;4928060;29;20052;-70
2022/04/18 11:44:58;;;;;;;28.63;12.55;;;;;;;33.10;40.78;97751.38;4945804;28;20047;-69
2022/04/18 11:47:51;;;;;;;27.45;11.80;;;;;;;33.10;38.35;97762.06;4946075;28;20047;-70
2022/04/18 11:50:44;;;;;;;32.88;13.65;;;;;;;33.02;40.03;97753.25;4945672;28;20206;-69
2022/04/18 11:53:37;;;;;;;23.13;11.27;;;;;;;33.02;38.50;97758.59;4946781;28;20062;-70
2022/04/18 11:56:26;;;;;;;25.00;11.38;;;;;;;32.92;42.11;97755.53;4948881;28;20054;-69
2022/04/18 11:59:10;;;;;;;26.95;10.77;;;;;;;32.86;40.48;97761.72;4943941;28;20071;-69
2022/04/18 12:08:13;;;;;;;27.45;11.57;;;;;;;32.48;43.89;97750.09;4945043;29;20371;-67
2022/04/18 12:11:03;;;;;;;26.02;11.95;;;;;;;32.39;43.08;97760.16;4941742;28;20051;-70
2022/04/18 12:13:47;;;;;;;28.38;11.40;;;;;;;32.33;42.78;97757.50;4949026;28;20047;-68
2022/04/18 12:16:43;;;;;;;26.33;11.40;;;;;;;32.30;43.25;97759.56;4948698;28;20106;-68
2022/04/18 12:19:40;;;;;;;32.38;11.38;;;;;;;32.30;42.11;97756.88;4948112;28;20451;-69
2022/04/18 12:22:21;;;;;;;32.70;12.77;;;;;;;32.25;43.28;97759.31;4946776;28;20047;-68
2022/04/18 12:25:19;;;;;;;22.75;11.25;;;;;;;32.20;44.27;97756.47;4945920;28;20138;-67
2022/04/18 12:28:01;;;;;;;35.08;11.63;;;;;;;32.15;42.87;97758.09;4947371;28;20055;-67
2022/04/18 12:30:59;;;;;;;34.40;11.30;;;;;;;32.10;44.47;97760.53;4928746;29;20820;-67
2022/04/18 12:33:49;;;;;;;30.10;10.63;;;;;;;32.03;42.86;97759.72;4947829;28;20055;-66
2022/04/18 12:36:44;;;;;;;33.92;11.88;;;;;;;31.96;45.14;97753.56;4945107;28;20051;-67
2022/04/18 12:39:32;;;;;;;35.70;11.35;;;;;;;31.90;44.91;97766.69;4942481;28;20070;-67
2022/04/18 12:42:22;;;;;;;22.85;10.75;;;;;;;31.83;45.12;97754.38;4944704;28;20079;-68
2022/04/18 12:45:05;;;;;;;30.48;10.82;;;;;;;31.73;47.86;97748.63;4940289;28;20106;-67
2022/04/18 12:47:53;;;;;;;24.92;10.93;;;;;;;31.68;46.12;97757.25;4947189;28;20050;-68
2022/04/18 12:50:36;;;;;;;27.33;12.07;;;;;;;31.64;47.48;97755.97;4947255;28;20154;-68
2022/04/18 12:53:26;;;;;;;26.92;11.95;;;;;;;31.59;47.42;97760.25;4945004;28;20054;-68
2022/04/18 12:56:08;;;;;;;28.95;13.68;;;;;;;31.51;47.43;97753.28;4944971;28;20106;-68
2022/04/18 12:59:14;;;;;;;29.27;13.63;;;;;;;31.42;50.36;97759.81;4949432;28;20078;-66
2022/04/18 13:02:09;;;;;;;29.88;13.43;;;;;;;31.32;51.98;97756.69;4947114;28;20051;-67
2022/04/18 13:05:07;;;;;;;34.47;13.82;;;;;;;31.21;53.93;97759.94;4945919;28;20051;-70
2022/04/18 13:07:49;;;;;;;29.27;13.02;;;;;;;31.10;53.67;97764.81;4945570;28;20051;-70
2022/04/18 13:10:41;;;;;;;27.05;12.85;;;;;;;30.99;53.33;97767.16;4945640;28;20051;-69
2022/04/18 13:13:22;;;;;;;34.35;13.75;;;;;;;30.90;54.54;97769.16;4946778;28;20055;-67
2022/04/18 13:16:29;;;;;;;34.58;13.65;;;;;;;30.79;57.06;97767.91;4944497;28;20062;-67
2022/04/18 13:19:15;;;;;;;29.75;14.23;;;;;;;30.71;56.41;97770.72;4942701;28;20047;-67
2022/04/18 13:22:04;;;;;;;37.13;14.10;;;;;;;30.65;59.90;97763.50;4946457;28;20384;-67
2022/04/18 13:24:46;;;;;;;32.30;14.10;;;;;;;30.55;57.97;97765.72;4942530;28;20547;-67
2022/04/18 13:27:35;;;;;;;33.70;14.23;;;;;;;30.50;59.47;97762.75;4945684;28;20055;-67
2022/04/18 13:30:32;;;;;;;34.17;15.13;;;;;;;30.47;59.79;97772.97;4940755;28;20051;-69
2022/04/18 13:33:09;;;;;;;41.53;16.40;;;;;;;30.40;57.18;97772.94;4946690;28;20486;-68
2022/04/18 13:38:58;;;;;;;41.72;16.38;;;;;;;30.32;61.25;97773.09;4946622;28;20098;-69